createdAt,value
2022-09-20T00:02:41.874Z,8.68
2022-09-20T00:05:13.252Z,8.67
2022-09-20T00:08:16.518Z,8.64
2022-09-20T00:11:36.199Z,8.64
2022-09-20T00:14:27.924Z,8.63
2022-09-20T00:17:36.184Z,8.63
2022-09-20T00:20:36.668Z,8.63
2022-09-20T00:23:45.966Z,8.63
2022-09-20T00:26:25.576Z,8.64
2022-09-20T00:29:14.530Z,8.64
2022-09-20T00:31:56.574Z,8.61
2022-09-20T00:34:49.411Z,8.59
2022-09-20T00:38:03.991Z,8.56
2022-09-20T00:40:43.098Z,8.54
2022-09-20T00:43:42.301Z,8.52
2022-09-20T00:46:35.173Z,8.51
2022-09-20T00:49:30.732Z,8.47
2022-09-20T00:52:45.769Z,8.45
2022-09-20T00:55:51.327Z,8.41
2022-09-20T00:58:52.772Z,8.39
2022-09-20T01:01:32.519Z,8.38
2022-09-20T01:04:37.326Z,8.37
2022-09-20T01:07:57.186Z,8.37
2022-09-20T01:11:15.920Z,8.35
2022-09-20T01:14:24.792Z,8.34
2022-09-20T01:17:39.801Z,8.33
2022-09-20T01:20:45.994Z,8.31
2022-09-20T01:24:06.424Z,8.29
2022-09-20T01:27:25.129Z,8.26
2022-09-20T01:30:43.561Z,8.24
2022-09-20T01:34:11.909Z,8.22
2022-09-20T01:37:26.246Z,8.19
2022-09-20T01:40:22.212Z,8.16
2022-09-20T01:43:42.707Z,8.14
2022-09-20T01:47:00.148Z,8.12
2022-09-20T01:50:24.714Z,8.07
2022-09-20T01:53:36.785Z,8.04
2022-09-20T01:56:44.136Z,8.02
2022-09-20T02:00:05.539Z,7.98
2022-09-20T02:03:03.183Z,7.95
2022-09-20T02:06:30.430Z,7.91
2022-09-20T02:13:40.859Z,7.84
2022-09-20T02:17:15.367Z,7.81
2022-09-20T02:23:57.317Z,7.77
2022-09-20T02:26:56.513Z,7.76
2022-09-20T02:30:29.503Z,7.74
2022-09-20T02:33:20.729Z,7.72
2022-09-20T02:36:34.372Z,7.70
2022-09-20T02:39:58.405Z,7.70
2022-09-20T02:43:29.565Z,7.68
2022-09-20T02:46:21.609Z,7.66
2022-09-20T02:49:32.969Z,7.64
2022-09-20T02:52:21.654Z,7.64
2022-09-20T02:55:06.676Z,7.63
2022-09-20T02:58:03.776Z,7.62
2022-09-20T03:00:56.133Z,7.59
2022-09-20T03:03:27.918Z,7.57
2022-09-20T03:06:15.204Z,7.55
2022-09-20T03:08:43.246Z,7.52
2022-09-20T03:11:27.527Z,7.47
2022-09-20T03:14:23.303Z,7.43
2022-09-20T03:16:59.112Z,7.37
2022-09-20T03:19:27.323Z,7.33
2022-09-20T03:22:02.486Z,7.30
2022-09-20T03:24:44.139Z,7.27
2022-09-20T03:27:15.184Z,7.22
2022-09-20T03:30:06.463Z,7.19
2022-09-20T03:32:34.401Z,7.16
2022-09-20T03:35:06.978Z,7.11
2022-09-20T03:37:57.911Z,7.06
2022-09-20T03:40:29.190Z,7.03
2022-09-20T03:43:04.236Z,7.00
2022-09-20T03:48:47.499Z,6.87
2022-09-20T03:51:28.126Z,6.81
2022-09-20T03:54:05.591Z,6.78
2022-09-20T03:56:59.565Z,6.78
2022-09-20T03:59:43.964Z,6.77
2022-09-20T04:02:45.568Z,6.77
2022-09-20T04:05:19.554Z,6.79
2022-09-20T04:08:16.634Z,6.79
2022-09-20T04:11:03.809Z,6.80
2022-09-20T04:13:38.228Z,6.81
2022-09-20T04:16:22.592Z,6.83
2022-09-20T04:18:58.043Z,6.81
2022-09-20T04:21:46.402Z,6.78
2022-09-20T04:24:23.394Z,6.75
2022-09-20T04:26:56.674Z,6.73
2022-09-20T04:29:36.787Z,6.73
2022-09-20T04:32:12.909Z,6.72
2022-09-20T04:35:07.788Z,6.69
2022-09-20T04:37:38.611Z,6.67
2022-09-20T04:40:10.474Z,6.67
2022-09-20T04:43:03.133Z,6.70
2022-09-20T04:45:35.120Z,6.73
2022-09-20T04:48:24.380Z,6.78
2022-09-20T04:51:13.603Z,6.86
2022-09-20T04:57:52.220Z,7.47
2022-09-20T05:01:12.815Z,8.01
2022-09-20T05:04:46.394Z,8.69
2022-09-20T05:07:57.115Z,9.36
2022-09-20T05:11:15.471Z,10.06
2022-09-20T05:14:03.526Z,10.70
2022-09-20T05:17:08.151Z,11.29
2022-09-20T05:19:45.082Z,11.89
2022-09-20T05:22:36.124Z,12.41
2022-09-20T05:25:32.773Z,12.91
2022-09-20T05:28:32.866Z,13.58
2022-09-20T05:31:08.068Z,14.10
2022-09-20T05:34:17.124Z,14.70
2022-09-20T05:36:56.613Z,15.16
2022-09-20T05:39:43.563Z,15.70
2022-09-20T05:43:22.747Z,16.24
2022-09-20T05:46:38.357Z,16.79
2022-09-20T05:49:44.149Z,17.30
2022-09-20T05:56:38.795Z,18.16
2022-09-20T06:00:27.095Z,18.70
2022-09-20T06:02:55.759Z,19.10
2022-09-20T06:06:07.144Z,19.25
2022-09-20T06:37:27.310Z,22.37
2022-09-20T06:44:03.448Z,22.10
2022-09-20T06:46:39.564Z,22.10
2022-09-20T06:49:32.177Z,21.91
2022-09-20T07:06:04.699Z,21.41
2022-09-20T07:08:54.919Z,21.31
2022-09-20T07:12:01.189Z,21.39
2022-09-20T07:14:58.412Z,21.61
2022-09-20T07:18:28.479Z,21.74
2022-09-20T08:03:33.487Z,26.06
2022-09-20T08:06:35.159Z,26.32
2022-09-20T08:09:05.238Z,26.43
2022-09-20T08:11:48.851Z,26.41
2022-09-20T08:14:18.167Z,26.47
2022-09-20T08:16:47.649Z,26.64
2022-09-20T08:19:21.050Z,26.49
2022-09-20T08:21:54.859Z,26.34
2022-09-20T08:24:45.192Z,26.50
2022-09-20T08:27:15.970Z,26.57
2022-09-20T08:29:43.972Z,26.37
2022-09-20T08:32:12.375Z,26.20
2022-09-20T08:34:40.915Z,25.89
2022-09-20T08:37:09.053Z,25.74
2022-09-20T08:42:46.886Z,26.38
2022-09-20T08:45:33.675Z,25.46
2022-09-20T08:48:26.896Z,24.54
2022-09-20T08:50:55.049Z,24.49
2022-09-20T08:53:22.957Z,24.67
2022-09-20T08:55:50.794Z,24.85
2022-09-20T08:58:19.365Z,24.81
2022-09-20T09:00:47.793Z,24.71
2022-09-20T09:03:17.771Z,24.94
2022-09-20T09:05:47.299Z,25.29
2022-09-20T09:08:19.738Z,25.45
2022-09-20T09:10:54.905Z,26.21
2022-09-20T09:13:30.272Z,26.52
2022-09-20T09:15:59.899Z,26.52
2022-09-20T09:18:31.801Z,26.74
2022-09-20T09:21:00.387Z,27.11
2022-09-20T09:23:29.271Z,27.39
2022-09-20T09:26:03.112Z,26.62
2022-09-20T09:28:36.895Z,25.05
2022-09-20T09:31:38.669Z,24.36
2022-09-20T09:34:26.161Z,24.56
2022-09-20T09:36:55.507Z,25.06
2022-09-20T09:39:35.617Z,25.28
2022-09-20T09:42:23.882Z,25.59
2022-09-20T09:44:51.845Z,25.98
2022-09-20T09:47:28.218Z,26.37
2022-09-20T09:50:00.761Z,26.28
2022-09-20T09:52:33.521Z,25.73
2022-09-20T09:55:05.439Z,25.67
2022-09-20T09:57:56.087Z,25.85
2022-09-20T10:00:25.091Z,26.46
2022-09-20T10:03:03.065Z,26.82
2022-09-20T10:05:57.588Z,26.76
2022-09-20T10:08:35.424Z,25.96
2022-09-20T10:11:21.935Z,25.26
2022-09-20T10:14:08.039Z,24.72
2022-09-20T10:16:45.585Z,24.29
2022-09-20T10:19:23.532Z,24.61
2022-09-20T10:22:02.102Z,25.10
2022-09-20T10:24:41.844Z,24.55
2022-09-20T10:27:22.770Z,24.13
2022-09-20T10:30:09.532Z,23.62
2022-09-20T10:32:46.077Z,23.60
2022-09-20T10:35:16.140Z,23.77
2022-09-20T10:42:15.556Z,24.29
2022-09-20T10:44:56.059Z,24.34
2022-09-20T10:48:01.084Z,24.20
2022-09-20T10:50:44.809Z,23.95
2022-09-20T10:53:28.098Z,23.20
2022-09-20T10:56:02.763Z,22.56
2022-09-20T10:58:30.718Z,22.14
2022-09-20T11:00:59.367Z,21.75
2022-09-20T11:11:09.642Z,21.48
2022-09-20T11:14:46.923Z,21.54
2022-09-20T11:35:17.664Z,23.45
2022-09-20T11:38:34.370Z,23.78
2022-09-20T11:42:02.131Z,23.57
2022-09-20T11:45:28.767Z,23.50
2022-09-20T11:48:22.239Z,23.76
2022-09-20T11:51:29.531Z,24.18
2022-09-20T11:54:09.289Z,24.32
2022-09-20T11:57:17.048Z,24.27
2022-09-20T12:00:30.991Z,23.72
2022-09-20T12:03:01.183Z,23.33
2022-09-20T12:44:24.869Z,19.81
2022-09-20T12:47:02.532Z,19.75
2022-09-20T12:53:19.352Z,19.15
2022-09-20T12:56:17.238Z,18.80
2022-09-20T12:58:51.694Z,18.54
2022-09-20T13:01:43.582Z,18.38
2022-09-20T13:04:54.517Z,18.26
2022-09-20T13:07:45.056Z,18.12
2022-09-20T13:10:39.854Z,18.07
2022-09-20T13:13:39.631Z,18.06
2022-09-20T13:48:57.885Z,19.17
2022-09-20T13:51:49.616Z,19.26
2022-09-20T14:27:11.409Z,18.62
2022-09-20T14:31:19.224Z,18.52
2022-09-20T14:38:15.540Z,18.28
2022-09-20T14:41:39.703Z,18.19
2022-09-20T14:51:29.622Z,17.84
2022-09-20T14:54:06.656Z,17.70
2022-09-20T14:56:38.568Z,17.60
2022-09-20T14:59:09.765Z,17.45
2022-09-20T15:01:41.277Z,17.38
2022-09-20T15:04:11.041Z,17.30
2022-09-20T15:06:40.401Z,17.23
2022-09-20T15:09:11.759Z,17.15
2022-09-20T15:11:41.041Z,17.06
2022-09-20T15:14:09.132Z,17.01
2022-09-20T15:16:37.435Z,16.94
2022-09-20T15:19:26.559Z,16.85
2022-09-20T15:21:54.784Z,16.74
2022-09-20T15:24:35.707Z,16.67
2022-09-20T15:27:04.394Z,16.63
2022-09-20T15:29:33.042Z,16.55
2022-09-20T15:32:03.055Z,16.47
2022-09-20T15:34:31.359Z,16.40
2022-09-20T15:36:59.497Z,16.27
2022-09-20T15:39:28.170Z,16.14
2022-09-20T15:41:57.401Z,16.03
2022-09-20T15:44:25.685Z,15.92
2022-09-20T15:46:57.260Z,15.80
2022-09-20T15:49:25.458Z,15.70
2022-09-20T15:51:53.748Z,15.60
2022-09-20T15:54:22.023Z,15.49
2022-09-20T15:56:53.376Z,15.37
2022-09-20T15:59:25.700Z,15.28
2022-09-20T16:02:10.567Z,15.17
2022-09-20T16:08:40.548Z,14.95
2022-09-20T16:11:23.020Z,14.84
2022-09-20T16:21:58.314Z,14.44
2022-09-20T17:01:52.661Z,13.52
2022-09-20T17:04:24.920Z,13.46
2022-09-20T17:06:54.778Z,13.41
2022-09-20T17:09:23.094Z,13.39
2022-09-20T17:11:56.943Z,13.34
2022-09-20T17:14:53.030Z,13.28
2022-09-20T17:17:24.846Z,13.23
2022-09-20T17:20:27.272Z,13.15
2022-09-20T17:23:34.816Z,13.08
2022-09-20T17:26:23.095Z,13.00
2022-09-20T17:28:56.593Z,12.90
2022-09-20T17:32:13.463Z,12.82
2022-09-20T17:37:54.207Z,12.63
2022-09-20T17:40:32.110Z,12.54
2022-09-20T17:43:55.136Z,12.42
2022-09-20T17:46:31.658Z,12.32
2022-09-20T17:49:22.675Z,12.22
2022-09-20T17:52:10.381Z,12.13
2022-09-20T17:54:39.961Z,12.06
2022-09-20T17:57:15.407Z,12.00
2022-09-20T17:59:43.706Z,11.93
2022-09-20T19:00:46.491Z,10.40
2022-09-20T19:03:27.541Z,10.31
2022-09-20T19:06:18.439Z,10.22
2022-09-20T19:08:59.436Z,10.18
2022-09-20T19:11:32.461Z,10.12
2022-09-20T19:14:06.827Z,10.06
2022-09-20T19:16:37.164Z,9.99
2022-09-20T19:19:25.070Z,9.93
2022-09-20T19:22:39.153Z,9.85
2022-09-20T19:25:42.896Z,9.78
2022-09-20T19:28:12.609Z,9.71
2022-09-20T19:30:42.880Z,9.65
2022-09-20T19:33:18.061Z,9.58
2022-09-20T19:35:49.605Z,9.51
2022-09-20T19:38:23.577Z,9.43
2022-09-20T19:41:09.030Z,9.36
2022-09-20T19:43:53.244Z,9.31
2022-09-20T19:46:40.056Z,9.25
2022-09-20T19:49:11.189Z,9.18
2022-09-20T19:51:41.309Z,9.11
2022-09-20T19:54:15.186Z,9.05
2022-09-20T19:56:46.422Z,8.99
2022-09-20T19:59:23.979Z,8.93
2022-09-20T20:01:52.719Z,8.87
2022-09-20T20:04:21.404Z,8.83
2022-09-20T20:07:09.270Z,8.78
2022-09-20T20:09:53.366Z,8.71
2022-09-20T20:12:53.182Z,8.65
2022-09-20T20:15:38.234Z,8.60
2022-09-20T20:18:25.084Z,8.55
2022-09-20T20:20:55.192Z,8.50
2022-09-20T20:27:03.920Z,8.43
2022-09-20T20:30:22.149Z,8.37
2022-09-20T20:33:20.902Z,8.34
2022-09-20T20:35:54.432Z,8.31
2022-09-20T20:38:26.518Z,8.27
2022-09-20T20:41:29.219Z,8.22
2022-09-20T20:43:57.944Z,8.15
2022-09-20T20:46:27.709Z,8.11
2022-09-20T20:48:56.290Z,8.08
2022-09-20T20:51:27.426Z,8.04
2022-09-20T20:53:55.533Z,8.00
2022-09-20T20:56:28.932Z,7.95
2022-09-20T20:59:01.703Z,7.92
2022-09-20T21:01:33.878Z,7.89
2022-09-20T21:04:05.195Z,7.86
2022-09-20T21:06:35.426Z,7.83
2022-09-20T21:09:04.488Z,7.80
2022-09-20T21:11:36.081Z,7.76
2022-09-20T21:14:06.733Z,7.73
2022-09-20T21:16:37.951Z,7.67
2022-09-20T21:19:06.368Z,7.62
2022-09-20T21:21:40.637Z,7.57
2022-09-20T21:24:09.942Z,7.52
2022-09-20T21:26:38.914Z,7.47
2022-09-20T21:29:11.250Z,7.44
2022-09-20T21:31:41.478Z,7.41
2022-09-20T21:34:10.923Z,7.36
2022-09-20T21:36:42.092Z,7.34
2022-09-20T21:39:10.452Z,7.31
2022-09-20T21:41:39.930Z,7.28
2022-09-20T21:44:10.137Z,7.24
2022-09-20T21:46:40.289Z,7.20
2022-09-20T21:49:11.569Z,7.17
2022-09-20T21:51:53.335Z,7.12
2022-09-20T21:54:49.550Z,7.06
2022-09-20T21:57:17.940Z,7.00
2022-09-20T22:00:47.584Z,6.94
2022-09-20T22:04:05.617Z,6.88
2022-09-20T22:06:56.859Z,6.80
2022-09-20T22:09:28.553Z,6.76
2022-09-20T22:11:56.912Z,6.73
2022-09-20T22:14:26.519Z,6.69
2022-09-20T22:16:54.853Z,6.65
2022-09-20T22:19:24.181Z,6.60
2022-09-20T22:22:17.398Z,6.55
2022-09-20T22:25:22.195Z,6.52
2022-09-20T22:28:26.235Z,6.48
2022-09-20T22:31:30.067Z,6.44
2022-09-20T22:34:59.453Z,6.41
2022-09-20T22:37:51.015Z,6.41
2022-09-20T22:41:20.059Z,6.42
2022-09-20T22:44:28.080Z,6.42
2022-09-20T22:47:56.913Z,6.43
2022-09-20T22:50:57.399Z,6.43
2022-09-20T22:53:51.998Z,6.43
2022-09-20T22:57:19.558Z,6.43
2022-09-20T23:00:27.664Z,6.41
2022-09-20T23:03:50.557Z,6.38
2022-09-20T23:07:09.279Z,6.38
2022-09-20T23:10:16.559Z,6.36
2022-09-20T23:13:47.010Z,6.33
2022-09-20T23:16:57.003Z,6.31
2022-09-20T23:20:14.041Z,6.30
2022-09-20T23:23:12.470Z,6.29
2022-09-20T23:26:23.198Z,6.30
2022-09-20T23:29:45.093Z,6.28
2022-09-20T23:32:56.126Z,6.25
2022-09-20T23:36:18.682Z,6.24
2022-09-20T23:39:49.620Z,6.22
2022-09-20T23:43:11.938Z,6.20
2022-09-20T23:46:40.746Z,6.17
2022-09-20T23:49:47.175Z,6.13
2022-09-20T23:52:48.868Z,6.10
2022-09-20T23:56:15.466Z,6.07
2022-09-20T23:59:38.455Z,6.06
